Time;durP1;ratioP1;P1;durP2;ratioP2;P2;SDS_P1;SDS_P2;PMS_P1;PMS_P2;Temp;Humidity;BMP_temperature;BMP_pressure;BME280_temperature;BME280_humidity;BME280_pressure;Samples;Min_cycle;Max_cycle;Signal;HPM_P1;HPM_P2
2023/12/08 00:02:10;;;;;;;13.98;8.18;;;5.40;71.90;;;;;;2269593;55;21006;-67
2023/12/08 00:04:38;;;;;;;14.93;8.32;;;5.40;71.90;;;;;;2268537;55;20944;-68
2023/12/08 00:07:05;;;;;;;18.77;10.02;;;5.50;72.00;;;;;;2268894;56;21420;-68
2023/12/08 00:09:33;;;;;;;19.27;11.27;;;5.50;72.00;;;;;;2498403;53;21404;-69
2023/12/08 00:12:01;;;;;;;16.67;9.68;;;5.50;72.00;;;;;;2268975;55;21074;-71
2023/12/08 00:14:27;;;;;;;16.33;9.82;;;5.50;72.00;;;;;;2502543;53;20999;-68
2023/12/08 00:16:54;;;;;;;16.73;9.70;;;5.50;72.00;;;;;;2268827;56;21071;-68
2023/12/08 00:19:21;;;;;;;14.27;8.20;;;5.50;72.00;;;;;;2268662;55;20991;-67
2023/12/08 00:21:48;;;;;;;16.08;8.32;;;5.50;72.70;;;;;;2271308;56;21583;-72
2023/12/08 00:24:14;;;;;;;17.15;9.18;;;5.50;71.90;;;;;;2492388;54;20975;-68
2023/12/08 00:26:44;;;;;;;14.93;7.57;;;5.50;71.90;;;;;;2261949;56;20923;-71
2023/12/08 00:29:11;;;;;;;13.07;6.93;;;5.60;72.00;;;;;;2269176;55;21051;-68
2023/12/08 00:31:37;;;;;;;10.43;5.72;;;5.50;71.90;;;;;;2499019;53;21036;-70
2023/12/08 00:34:03;;;;;;;10.07;4.97;;;5.50;71.90;;;;;;2268828;55;21448;-68
2023/12/08 00:36:30;;;;;;;9.93;5.75;;;5.60;72.00;;;;;;2272429;56;21225;-71
2023/12/08 00:38:56;;;;;;;10.27;5.85;;;5.60;71.80;;;;;;2491498;54;21020;-71
2023/12/08 00:41:24;;;;;;;11.10;6.10;;;5.60;71.80;;;;;;2267707;55;21047;-70
2023/12/08 00:43:50;;;;;;;12.50;5.80;;;5.60;71.80;;;;;;2267947;55;21667;-69
2023/12/08 00:46:17;;;;;;;10.88;5.15;;;5.60;71.80;;;;;;2498157;53;20947;-69
2023/12/08 00:48:45;;;;;;;11.77;6.50;;;5.60;71.80;;;;;;2498700;53;20960;-68
2023/12/08 00:51:12;;;;;;;11.15;5.65;;;5.60;71.80;;;;;;2268861;56;21027;-70
2023/12/08 00:53:42;;;;;;;11.30;5.65;;;5.60;71.80;;;;;;2498384;53;21773;-67
2023/12/08 00:56:09;;;;;;;10.93;6.00;;;5.60;71.80;;;;;;2268597;56;20975;-68
2023/12/08 00:58:36;;;;;;;10.40;5.80;;;5.60;71.80;;;;;;2268448;55;20955;-69
2023/12/08 01:01:03;;;;;;;7.60;4.37;;;5.60;71.90;;;;;;2273758;56;21030;-68
2023/12/08 01:03:29;;;;;;;9.10;4.68;;;5.60;71.80;;;;;;2269259;55;21520;-68
2023/12/08 01:05:56;;;;;;;9.35;4.87;;;5.60;71.80;;;;;;2497861;53;20955;-71
2023/12/08 01:08:26;;;;;;;8.65;4.00;;;5.70;71.90;;;;;;2268601;55;21945;-69
2023/12/08 01:10:52;;;;;;;5.62;3.03;;;5.70;71.90;;;;;;2265455;56;21439;-70
2023/12/08 01:13:19;;;;;;;8.60;4.60;;;5.60;71.80;;;;;;2267789;55;20932;-68
2023/12/08 01:15:46;;;;;;;9.05;4.95;;;5.70;71.90;;;;;;2498146;53;21932;-69
2023/12/08 01:18:14;;;;;;;7.28;4.25;;;5.70;71.90;;;;;;2267706;55;21690;-70
2023/12/08 01:20:40;;;;;;;6.57;3.90;;;5.70;71.90;;;;;;2267558;55;21010;-68
2023/12/08 01:23:09;;;;;;;6.80;3.67;;;5.70;71.90;;;;;;2223422;57;21029;-68
2023/12/08 01:25:36;;;;;;;4.85;2.65;;;5.70;72.00;;;;;;2241994;56;20939;-70
2023/12/08 01:28:02;;;;;;;5.87;3.15;;;5.70;72.00;;;;;;2252147;56;20960;-69
2023/12/08 01:30:28;;;;;;;6.25;3.40;;;5.70;71.90;;;;;;2466359;54;21019;-68
2023/12/08 01:32:55;;;;;;;5.62;2.78;;;5.70;71.90;;;;;;2241335;56;20964;-71
2023/12/08 01:35:21;;;;;;;7.37;4.10;;;5.70;71.90;;;;;;2464998;54;21667;-70
2023/12/08 01:37:50;;;;;;;6.30;3.22;;;5.80;72.00;;;;;;2242348;56;20948;-69
2023/12/08 01:40:16;;;;;;;8.07;4.10;;;5.70;71.90;;;;;;2471371;54;20941;-71
2023/12/08 01:42:44;;;;;;;7.05;3.75;;;5.80;72.00;;;;;;2490943;54;21045;-69
2023/12/08 01:45:11;;;;;;;5.72;3.50;;;5.80;72.00;;;;;;2303146;56;20965;-69
2023/12/08 01:47:38;;;;;;;6.43;3.60;;;5.80;72.00;;;;;;2302559;56;20953;-68
2023/12/08 01:50:05;;;;;;;6.87;3.03;;;5.80;71.90;;;;;;2524860;53;20978;-70
2023/12/08 01:52:31;;;;;;;4.90;2.70;;;5.80;72.00;;;;;;2540418;54;20957;-68
2023/12/08 01:54:58;;;;;;;4.65;2.28;;;5.80;72.00;;;;;;2305552;54;21007;-68
2023/12/08 01:57:25;;;;;;;4.15;2.22;;;5.80;72.00;;;;;;2524533;54;21005;-71
2023/12/08 02:00:01;;;;;;;3.92;2.12;;;5.80;72.10;;;;;;2305513;54;21901;-67
2023/12/08 02:02:28;;;;;;;5.62;2.80;;;5.80;72.10;;;;;;2302839;55;21053;-70
2023/12/08 02:04:57;;;;;;;5.85;3.15;;;5.80;72.10;;;;;;2540732;54;20957;-70
2023/12/08 02:07:25;;;;;;;6.55;3.42;;;5.80;72.10;;;;;;2539994;54;21037;-73
2023/12/08 02:09:52;;;;;;;5.32;2.90;;;5.90;72.20;;;;;;2540317;54;21605;-69
2023/12/08 02:12:18;;;;;;;6.50;3.50;;;5.90;72.20;;;;;;2540339;54;21086;-69
2023/12/08 02:14:46;;;;;;;7.20;3.55;;;5.90;72.20;;;;;;2541092;53;20993;-69
2023/12/08 02:17:16;;;;;;;6.87;3.60;;;5.90;72.20;;;;;;2303516;56;20969;-69
2023/12/08 02:19:48;;;;;;;7.25;4.00;;;5.90;72.20;;;;;;2302451;55;21379;-68
2023/12/08 02:22:16;;;;;;;6.20;3.15;;;5.90;72.20;;;;;;2541454;54;20970;-69
2023/12/08 02:24:44;;;;;;;5.70;3.28;;;6.00;72.30;;;;;;2305889;54;20939;-69
2023/12/08 02:27:11;;;;;;;5.93;3.12;;;5.90;72.20;;;;;;2303689;55;21720;-71
2023/12/08 02:29:37;;;;;;;6.20;3.80;;;5.90;72.10;;;;;;2539871;54;20969;-69
2023/12/08 02:32:35;;;;;;;7.28;3.65;;;6.00;72.20;;;;;;2305964;56;21475;-70
2023/12/08 02:35:05;;;;;;;6.93;3.78;;;6.00;72.00;;;;;;2541135;54;20967;-68
2023/12/08 02:37:32;;;;;;;7.07;3.72;;;6.00;72.10;;;;;;2303146;56;21903;-68
2023/12/08 02:40:02;;;;;;;6.43;3.42;;;6.00;72.10;;;;;;2302959;55;20938;-67
2023/12/08 02:42:28;;;;;;;6.70;3.40;;;6.00;72.10;;;;;;2303360;56;20914;-69
2023/12/08 02:44:55;;;;;;;6.30;3.78;;;6.00;72.10;;;;;;2303156;56;21768;-69
2023/12/08 02:47:21;;;;;;;7.37;4.07;;;6.00;72.10;;;;;;2307037;54;20972;-68
2023/12/08 02:49:51;;;;;;;6.70;3.92;;;6.00;72.10;;;;;;2302637;56;20913;-69
2023/12/08 02:52:19;;;;;;;6.78;3.97;;;6.00;72.10;;;;;;2540749;54;21433;-73
2023/12/08 02:54:45;;;;;;;6.35;3.85;;;6.00;72.20;;;;;;2305886;55;20963;-70
2023/12/08 02:57:11;;;;;;;8.70;4.22;;;6.10;72.30;;;;;;2302635;55;20922;-69
2023/12/08 02:59:37;;;;;;;7.93;5.05;;;6.10;72.30;;;;;;2539649;53;21040;-68
2023/12/08 03:02:07;;;;;;;7.72;4.95;;;6.10;72.40;;;;;;2540835;53;20930;-68
2023/12/08 03:04:34;;;;;;;9.45;5.70;;;6.10;72.30;;;;;;2540128;54;21919;-69
2023/12/08 03:07:02;;;;;;;8.80;5.53;;;6.10;72.20;;;;;;2516231;54;20951;-68
2023/12/08 03:09:29;;;;;;;9.70;5.78;;;6.10;72.20;;;;;;2294791;55;20962;-70
2023/12/08 03:12:00;;;;;;;8.15;5.12;;;6.10;72.10;;;;;;2540737;54;21065;-69
2023/12/08 03:14:26;;;;;;;7.93;4.75;;;6.10;72.10;;;;;;2305033;55;21415;-71
2023/12/08 03:16:53;;;;;;;8.50;5.25;;;6.10;72.20;;;;;;2540696;54;22125;-69
2023/12/08 03:19:21;;;;;;;9.63;5.82;;;6.10;72.20;;;;;;2303770;56;21052;-69
2023/12/08 03:21:48;;;;;;;9.15;5.47;;;6.20;72.20;;;;;;2276291;56;21847;-69
2023/12/08 03:24:14;;;;;;;9.07;4.72;;;6.10;72.10;;;;;;2534952;54;21673;-71
2023/12/08 03:26:41;;;;;;;9.82;5.15;;;6.20;72.20;;;;;;2302093;56;21838;-68
2023/12/08 03:29:07;;;;;;;8.05;5.15;;;6.10;72.10;;;;;;2540851;54;21033;-69
2023/12/08 03:35:10;;;;;;;11.50;6.43;;;6.20;72.00;;;;;;2541053;54;21497;-68
2023/12/08 03:37:37;;;;;;;9.48;5.10;;;6.20;72.10;;;;;;2302298;55;20965;-68
2023/12/08 03:40:04;;;;;;;9.07;4.82;;;6.20;72.10;;;;;;2540839;54;21079;-69
2023/12/08 03:42:36;;;;;;;7.72;4.68;;;6.20;72.10;;;;;;2540607;54;20933;-71
2023/12/08 03:45:07;;;;;;;8.10;4.80;;;6.20;72.10;;;;;;2540632;54;21022;-70
2023/12/08 03:47:33;;;;;;;9.48;5.28;;;6.20;72.10;;;;;;2302183;55;20985;-71
2023/12/08 03:50:01;;;;;;;9.45;4.72;;;6.20;72.80;;;;;;2303144;55;21002;-70
2023/12/08 03:52:27;;;;;;;8.35;4.43;;;6.20;72.10;;;;;;2302573;55;21202;-68
2023/12/08 03:54:54;;;;;;;9.73;5.68;;;6.20;72.10;;;;;;2302379;56;20970;-70
2023/12/08 03:57:20;;;;;;;9.13;4.97;;;6.20;72.20;;;;;;2540909;54;21265;-68
2023/12/08 03:59:49;;;;;;;7.87;4.37;;;6.20;72.10;;;;;;2272494;56;20965;-68
2023/12/08 04:02:15;;;;;;;6.93;4.30;;;6.20;72.50;;;;;;2271918;56;20984;-69
2023/12/08 04:04:43;;;;;;;7.47;4.40;;;6.20;72.20;;;;;;2502794;55;22418;-70
2023/12/08 04:07:10;;;;;;;9.75;5.20;;;6.30;72.30;;;;;;2513684;54;20953;-69
2023/12/08 04:09:36;;;;;;;9.85;5.40;;;6.30;72.30;;;;;;2280166;55;20988;-69
2023/12/08 04:12:03;;;;;;;9.95;5.60;;;6.30;72.30;;;;;;2281434;55;20944;-72
2023/12/08 04:14:32;;;;;;;8.73;5.07;;;6.30;72.30;;;;;;2503421;54;21127;-71
2023/12/08 04:16:58;;;;;;;8.07;5.20;;;6.30;72.30;;;;;;2513286;54;21584;-70
2023/12/08 04:19:25;;;;;;;8.98;5.62;;;6.30;72.40;;;;;;2513513;55;20948;-71
2023/12/08 04:21:52;;;;;;;9.90;5.37;;;6.30;72.40;;;;;;2280439;56;20933;-70
2023/12/08 04:24:20;;;;;;;10.02;5.70;;;6.30;73.10;;;;;;2552071;54;21288;-72
2023/12/08 04:26:47;;;;;;;6.45;4.30;;;6.30;72.50;;;;;;2550989;54;21678;-71
2023/12/08 04:29:13;;;;;;;7.78;4.55;;;6.30;72.50;;;;;;2301090;54;21005;-69
2023/12/08 04:31:43;;;;;;;5.93;3.53;;;6.30;72.60;;;;;;2296009;55;21552;-68
2023/12/08 04:34:12;;;;;;;5.12;3.08;;;6.40;72.90;;;;;;2544167;54;20969;-70
2023/12/08 04:36:47;;;;;;;4.60;2.37;;;6.40;73.10;;;;;;2540444;54;20914;-67
2023/12/08 04:39:14;;;;;;;5.28;2.70;;;6.40;73.40;;;;;;2540650;53;21469;-71
2023/12/08 04:41:43;;;;;;;4.03;2.12;;;6.50;73.80;;;;;;2540250;54;21383;-68
2023/12/08 04:44:09;;;;;;;3.33;1.87;;;6.50;74.20;;;;;;2302991;56;20970;-74
2023/12/08 04:46:35;;;;;;;4.00;2.20;;;6.50;74.40;;;;;;2302609;56;20958;-69
2023/12/08 04:49:02;;;;;;;5.40;2.83;;;6.60;74.70;;;;;;2540041;54;20995;-69
2023/12/08 04:51:29;;;;;;;5.25;2.58;;;6.70;74.90;;;;;;2302866;54;21022;-70
2023/12/08 04:53:55;;;;;;;5.20;3.28;;;6.70;74.90;;;;;;2302733;56;20937;-68
2023/12/08 04:56:21;;;;;;;6.45;2.92;;;6.80;75.10;;;;;;2540743;54;21388;-72
2023/12/08 04:58:49;;;;;;;4.37;2.58;;;6.90;75.30;;;;;;2302240;55;20961;-70
2023/12/08 05:01:17;;;;;;;3.42;2.20;;;6.90;75.40;;;;;;2544798;54;20982;-69
2023/12/08 05:03:43;;;;;;;3.35;1.75;;;7.00;75.60;;;;;;2301983;55;20989;-69
2023/12/08 05:06:09;;;;;;;3.85;1.80;;;7.10;75.80;;;;;;2302524;56;20962;-73
2023/12/08 05:08:36;;;;;;;3.10;1.60;;;7.10;75.90;;;;;;2302531;55;21033;-74
2023/12/08 05:11:03;;;;;;;3.58;1.60;;;7.20;75.90;;;;;;2302917;56;20933;-72
2023/12/08 05:13:29;;;;;;;3.47;1.70;;;7.30;76.00;;;;;;2302630;56;21515;-72
2023/12/08 05:15:57;;;;;;;3.25;1.52;;;7.40;76.10;;;;;;2540922;53;21825;-69
2023/12/08 05:18:23;;;;;;;3.85;1.80;;;7.50;76.20;;;;;;2535751;54;20958;-73
2023/12/08 05:20:51;;;;;;;3.47;1.70;;;7.50;76.20;;;;;;2539857;54;20998;-72
2023/12/08 05:23:18;;;;;;;3.20;1.50;;;7.60;76.30;;;;;;2303238;56;20977;-74
2023/12/08 05:25:47;;;;;;;3.92;1.70;;;7.70;76.50;;;;;;2540080;54;20942;-75
2023/12/08 05:28:13;;;;;;;5.47;1.37;;;7.70;76.40;;;;;;2302759;56;21041;-71
2023/12/08 05:30:41;;;;;;;3.60;1.80;;;7.80;76.50;;;;;;2302290;55;20937;-71
2023/12/08 05:33:08;;;;;;;3.87;1.98;;;7.80;76.60;;;;;;2541005;54;21468;-73
2023/12/08 05:35:38;;;;;;;2.85;1.30;;;7.90;76.70;;;;;;2304947;56;20944;-71
2023/12/08 05:38:04;;;;;;;3.80;1.70;;;8.00;76.70;;;;;;2303318;55;21929;-72
2023/12/08 05:40:31;;;;;;;3.30;1.35;;;8.10;76.80;;;;;;2540610;54;21860;-72
2023/12/08 05:42:57;;;;;;;3.05;1.50;;;8.10;76.70;;;;;;2306117;56;20950;-71
2023/12/08 05:45:24;;;;;;;3.30;1.40;;;8.20;76.80;;;;;;2540478;54;20991;-70
2023/12/08 05:47:50;;;;;;;3.20;1.40;;;8.30;76.80;;;;;;2540607;54;21017;-72
2023/12/08 05:50:17;;;;;;;3.12;1.30;;;8.40;76.90;;;;;;2303087;55;21420;-70
2023/12/08 05:52:43;;;;;;;2.45;1.02;;;8.40;76.80;;;;;;2539436;54;20962;-70
2023/12/08 05:55:12;;;;;;;3.28;1.50;;;8.50;76.90;;;;;;2303682;55;21042;-71
2023/12/08 05:57:40;;;;;;;3.08;1.52;;;8.60;77.00;;;;;;2303044;56;20978;-72
2023/12/08 06:00:10;;;;;;;3.00;1.40;;;8.60;76.90;;;;;;2303188;56;21234;-72
2023/12/08 06:02:36;;;;;;;3.72;1.42;;;8.70;77.00;;;;;;2538836;54;21306;-75
2023/12/08 06:05:05;;;;;;;2.45;1.20;;;8.80;77.00;;;;;;2539526;54;20979;-71
2023/12/08 06:07:34;;;;;;;2.25;1.10;;;8.80;77.00;;;;;;2539959;54;20962;-74
2023/12/08 06:10:09;;;;;;;2.92;1.25;;;8.90;77.10;;;;;;2302840;56;20969;-72
2023/12/08 06:12:36;;;;;;;3.08;1.25;;;8.90;77.00;;;;;;2302322;56;20941;-75
2023/12/08 06:15:02;;;;;;;2.53;1.00;;;9.00;77.10;;;;;;2541387;54;20902;-73
2023/12/08 06:17:28;;;;;;;2.37;1.27;;;9.00;77.10;;;;;;2540602;54;21081;-70
2023/12/08 06:19:56;;;;;;;2.62;1.30;;;9.10;77.10;;;;;;2539641;53;20951;-71
2023/12/08 06:22:22;;;;;;;2.58;1.10;;;9.20;77.10;;;;;;2540476;54;20982;-73
2023/12/08 06:24:49;;;;;;;2.72;1.12;;;9.20;77.10;;;;;;2539166;54;20992;-71
2023/12/08 06:27:15;;;;;;;2.30;1.00;;;9.30;77.20;;;;;;2540411;53;20996;-74
2023/12/08 06:29:42;;;;;;;5.28;1.00;;;9.30;77.10;;;;;;2539864;54;20941;-70
2023/12/08 06:32:08;;;;;;;2.28;1.00;;;9.40;77.20;;;;;;2302819;55;21634;-70
2023/12/08 06:34:34;;;;;;;2.78;1.10;;;9.40;77.20;;;;;;2302754;55;21010;-72
2023/12/08 06:37:02;;;;;;;3.15;1.40;;;9.50;77.20;;;;;;2303754;56;21037;-74
2023/12/08 06:39:29;;;;;;;3.35;1.58;;;9.60;77.30;;;;;;2303438;56;20992;-72
2023/12/08 06:41:55;;;;;;;3.05;1.52;;;9.60;77.20;;;;;;2539773;54;20986;-72
2023/12/08 06:44:25;;;;;;;3.67;1.50;;;9.70;77.30;;;;;;2287200;56;20982;-73
2023/12/08 06:46:52;;;;;;;4.37;2.40;;;9.70;77.20;;;;;;2531466;54;20961;-72
2023/12/08 06:49:19;;;;;;;3.85;2.15;;;9.80;77.20;;;;;;2541087;54;20933;-73
2023/12/08 06:51:46;;;;;;;4.87;2.12;;;9.80;77.20;;;;;;2302867;56;20974;-71
2023/12/08 06:54:12;;;;;;;3.85;2.15;;;9.90;77.20;;;;;;2541192;54;21030;-72
2023/12/08 06:56:44;;;;;;;3.25;1.58;;;9.90;77.10;;;;;;2302641;55;20934;-74
2023/12/08 06:59:11;;;;;;;3.92;1.87;;;10.00;76.00;;;;;;2303463;56;21661;-71
2023/12/08 07:01:41;;;;;;;3.67;1.58;;;10.00;75.80;;;;;;2540220;53;20967;-71
2023/12/08 07:04:10;;;;;;;3.42;1.75;;;10.00;75.80;;;;;;2541001;54;21496;-70
2023/12/08 07:06:37;;;;;;;3.22;1.80;;;10.10;75.80;;;;;;2303319;56;21030;-74
2023/12/08 07:09:03;;;;;;;3.45;1.90;;;10.10;75.70;;;;;;2303471;56;20970;-73
2023/12/08 07:11:30;;;;;;;4.93;2.42;;;10.10;75.70;;;;;;2305419;56;20961;-71
2023/12/08 07:13:57;;;;;;;4.35;2.60;;;10.20;75.70;;;;;;2498544;54;21074;-71
2023/12/08 07:16:27;;;;;;;4.15;2.15;;;10.20;75.60;;;;;;2541648;54;20981;-72
2023/12/08 07:18:53;;;;;;;4.65;2.03;;;10.30;75.60;;;;;;2302762;55;22195;-71
2023/12/08 07:21:21;;;;;;;5.22;2.25;;;10.30;75.40;;;;;;2541111;54;20958;-71
2023/12/08 07:23:47;;;;;;;3.55;1.58;;;10.30;75.30;;;;;;2303000;56;21036;-73
2023/12/08 07:26:16;;;;;;;5.80;2.90;;;10.30;75.20;;;;;;2541059;54;20985;-72
2023/12/08 07:28:44;;;;;;;6.40;3.30;;;10.40;75.20;;;;;;2540838;54;20970;-69
2023/12/08 07:31:12;;;;;;;7.53;3.45;;;10.50;75.30;;;;;;2303362;56;20969;-73
2023/12/08 07:33:38;;;;;;;6.50;3.45;;;10.40;75.10;;;;;;2540858;54;21738;-73
2023/12/08 07:36:05;;;;;;;6.35;3.33;;;10.40;75.00;;;;;;2302925;56;21033;-72
2023/12/08 07:38:31;;;;;;;5.00;2.62;;;10.50;75.10;;;;;;2532334;54;21094;-69
2023/12/08 07:40:57;;;;;;;4.57;2.83;;;10.50;75.10;;;;;;2301615;55;21017;-71
2023/12/08 07:43:24;;;;;;;5.22;2.95;;;10.50;75.10;;;;;;2302655;56;21017;-71
2023/12/08 07:45:51;;;;;;;3.70;2.03;;;10.50;75.00;;;;;;2539937;54;21121;-70
2023/12/08 07:48:17;;;;;;;4.20;1.77;;;10.50;75.00;;;;;;2302469;56;21892;-70
2023/12/08 07:50:44;;;;;;;3.08;1.30;;;10.60;75.10;;;;;;2302652;56;20926;-72
2023/12/08 07:53:13;;;;;;;2.72;1.10;;;10.60;75.10;;;;;;2504569;55;20988;-72
2023/12/08 07:55:41;;;;;;;2.22;0.88;;;10.60;75.10;;;;;;2502531;55;20956;-71
2023/12/08 07:58:08;;;;;;;2.70;1.08;;;10.60;75.80;;;;;;2281183;56;20955;-71
2023/12/08 08:00:34;;;;;;;2.20;1.02;;;10.60;75.20;;;;;;2504946;54;21029;-73
2023/12/08 08:03:01;;;;;;;2.53;1.12;;;10.70;75.30;;;;;;2280907;55;20921;-72
2023/12/08 08:05:28;;;;;;;1.40;0.77;;;10.70;75.30;;;;;;2287401;55;20926;-73
2023/12/08 08:07:55;;;;;;;1.87;0.88;;;10.70;75.30;;;;;;2279073;55;20968;-70
2023/12/08 08:10:21;;;;;;;1.98;0.88;;;10.80;75.50;;;;;;2284285;55;20956;-74
2023/12/08 08:12:48;;;;;;;2.30;0.80;;;10.70;75.40;;;;;;2504169;54;21831;-71
2023/12/08 08:15:15;;;;;;;1.50;0.60;;;10.80;75.50;;;;;;2544859;54;21016;-71
2023/12/08 08:17:42;;;;;;;2.53;0.90;;;10.90;75.50;;;;;;2561429;54;21013;-74
2023/12/08 08:20:09;;;;;;;1.85;0.80;;;10.90;75.50;;;;;;2545768;54;21056;-71
2023/12/08 08:22:39;;;;;;;1.98;0.80;;;10.90;75.40;;;;;;2539498;54;20950;-71
2023/12/08 08:25:07;;;;;;;1.75;0.60;;;10.90;75.50;;;;;;2540227;54;20955;-71
2023/12/08 08:27:33;;;;;;;1.73;0.70;;;10.90;75.50;;;;;;2302543;55;21811;-74
2023/12/08 08:30:00;;;;;;;2.00;0.90;;;10.90;75.50;;;;;;2527559;54;21034;-73
2023/12/08 08:33:09;;;;;;;2.10;0.70;;;11.00;75.60;;;;;;2525520;54;20945;-70
2023/12/08 08:35:39;;;;;;;1.10;0.50;;;11.00;75.30;;;;;;2302819;55;21024;-70
2023/12/08 08:38:06;;;;;;;3.33;1.52;;;11.10;75.60;;;;;;2302696;56;20977;-70
2023/12/08 08:40:38;;;;;;;2.70;1.20;;;11.10;75.60;;;;;;2540076;54;20985;-71
2023/12/08 08:43:08;;;;;;;4.18;1.60;;;11.20;75.60;;;;;;2303570;55;21029;-70
2023/12/08 08:45:34;;;;;;;4.90;2.15;;;11.20;75.60;;;;;;2306345;55;20986;-72
2023/12/08 08:48:01;;;;;;;5.18;2.67;;;11.20;75.60;;;;;;2303361;54;21972;-71
2023/12/08 08:50:27;;;;;;;5.28;2.50;;;11.20;75.60;;;;;;2540920;54;20957;-73
2023/12/08 08:52:58;;;;;;;4.25;2.15;;;11.20;75.50;;;;;;2302497;56;21289;-72
2023/12/08 08:55:24;;;;;;;3.97;1.85;;;11.30;75.60;;;;;;2539725;54;21341;-71
2023/12/08 08:57:57;;;;;;;3.55;1.55;;;11.30;75.60;;;;;;2540033;54;20986;-72
2023/12/08 09:00:26;;;;;;;2.92;1.30;;;11.30;75.50;;;;;;2540691;54;20990;-71
2023/12/08 09:02:52;;;;;;;3.30;1.75;;;11.40;75.70;;;;;;2539381;54;20922;-72
2023/12/08 09:05:20;;;;;;;3.12;1.70;;;11.40;75.70;;;;;;2541167;54;21009;-71
2023/12/08 09:07:47;;;;;;;4.07;1.60;;;11.40;75.70;;;;;;2303147;55;20978;-73
2023/12/08 09:10:13;;;;;;;3.90;2.00;;;11.40;75.70;;;;;;2540469;54;21021;-73
2023/12/08 09:12:40;;;;;;;3.47;1.98;;;11.50;75.70;;;;;;2303251;55;20938;-72
2023/12/08 09:15:08;;;;;;;3.05;1.55;;;11.50;75.70;;;;;;2540850;54;20994;-74
2023/12/08 09:17:34;;;;;;;4.20;2.20;;;11.60;75.60;;;;;;2539897;54;21022;-70
2023/12/08 09:20:04;;;;;;;3.67;1.77;;;11.60;75.60;;;;;;2538408;53;21006;-73
2023/12/08 09:22:30;;;;;;;5.43;2.65;;;11.60;75.40;;;;;;2508209;54;20993;-73
2023/12/08 09:24:56;;;;;;;4.47;2.45;;;11.60;75.30;;;;;;2302323;56;20954;-71
2023/12/08 09:27:25;;;;;;;3.85;2.28;;;11.60;75.20;;;;;;2540941;54;20930;-72
2023/12/08 09:29:54;;;;;;;4.00;2.53;;;11.60;75.20;;;;;;2300428;54;20998;-71
2023/12/08 09:32:21;;;;;;;5.07;2.78;;;11.70;75.80;;;;;;2510549;54;21013;-70
2023/12/08 09:34:47;;;;;;;4.75;2.25;;;11.70;75.00;;;;;;2305121;55;21515;-71
2023/12/08 09:37:14;;;;;;;5.03;3.00;;;11.70;75.00;;;;;;2302048;56;20985;-71
2023/12/08 09:39:42;;;;;;;6.75;4.30;;;11.70;75.00;;;;;;2302780;56;20977;-72
2023/12/08 09:42:08;;;;;;;6.35;3.92;;;11.70;74.80;;;;;;2539674;54;21011;-72
2023/12/08 09:44:35;;;;;;;10.65;5.65;;;11.70;74.60;;;;;;2302583;55;21529;-70
2023/12/08 09:47:07;;;;;;;18.50;10.45;;;11.70;74.50;;;;;;2305021;55;21231;-71
2023/12/08 09:49:51;;;;;;;14.75;9.98;;;11.70;74.20;;;;;;2290991;55;21440;-72
2023/12/08 09:52:39;;;;;;;11.50;7.20;;;11.70;73.90;;;;;;2541050;53;21081;-72
2023/12/08 09:55:07;;;;;;;9.68;6.32;;;11.70;74.20;;;;;;2304594;54;21498;-74
2023/12/08 09:57:34;;;;;;;8.70;5.78;;;11.70;74.00;;;;;;2302819;56;20954;-69
2023/12/08 10:00:07;;;;;;;8.05;4.90;;;11.70;74.00;;;;;;2302298;56;20982;-70
2023/12/08 10:02:33;;;;;;;8.18;4.78;;;11.70;74.10;;;;;;2302478;56;21018;-74
2023/12/08 10:04:59;;;;;;;7.05;3.90;;;11.70;74.20;;;;;;2302546;56;20949;-70
2023/12/08 10:07:27;;;;;;;6.18;3.55;;;11.70;74.20;;;;;;2541690;54;21538;-71
2023/12/08 10:09:56;;;;;;;5.43;3.08;;;11.70;74.30;;;;;;2302981;56;21398;-71
2023/12/08 10:12:22;;;;;;;6.60;4.07;;;11.70;74.30;;;;;;2540902;54;20878;-70
2023/12/08 10:14:56;;;;;;;7.55;4.55;;;11.70;74.40;;;;;;2302589;56;21446;-71
2023/12/08 10:17:23;;;;;;;6.75;4.10;;;11.70;74.30;;;;;;2540991;54;21025;-69
2023/12/08 10:19:52;;;;;;;6.50;4.40;;;11.70;74.30;;;;;;2304890;56;20987;-71
2023/12/08 10:22:18;;;;;;;8.30;5.72;;;11.70;74.30;;;;;;2539548;54;21207;-73
2023/12/08 10:24:45;;;;;;;9.07;5.70;;;11.80;74.50;;;;;;2540052;54;21536;-70
2023/12/08 10:27:11;;;;;;;8.60;5.35;;;11.80;74.50;;;;;;2540462;54;21327;-70
2023/12/08 10:29:38;;;;;;;8.32;4.28;;;11.80;74.50;;;;;;2539848;54;20958;-72
2023/12/08 10:32:05;;;;;;;7.15;3.92;;;11.80;74.60;;;;;;2540494;54;21369;-70
2023/12/08 10:34:31;;;;;;;7.87;3.85;;;11.80;74.70;;;;;;2302869;55;21017;-70
2023/12/08 10:37:00;;;;;;;5.50;2.90;;;11.80;74.80;;;;;;2272847;56;21233;-69
2023/12/08 10:39:27;;;;;;;4.80;2.03;;;11.80;74.90;;;;;;2272227;55;20929;-70
2023/12/08 10:41:53;;;;;;;4.10;2.03;;;11.80;74.90;;;;;;2279405;55;20952;-72
2023/12/08 10:44:23;;;;;;;3.92;1.80;;;11.90;75.10;;;;;;2271492;56;21719;-72
2023/12/08 10:46:50;;;;;;;3.62;1.85;;;11.90;75.10;;;;;;2272099;56;21004;-69
2023/12/08 10:49:23;;;;;;;4.28;1.77;;;11.90;75.10;;;;;;2272016;56;21517;-69
2023/12/08 10:51:49;;;;;;;;;;;12.00;75.30;;;;;;2283740;54;21684;-70
2023/12/08 10:54:17;;;;;;;3.95;1.92;;;12.00;74.40;;;;;;2513447;54;20068;-73
2023/12/08 10:56:48;;;;;;;4.95;2.50;;;12.00;75.20;;;;;;2301940;55;21023;-68
2023/12/08 10:59:21;;;;;;;5.12;2.60;;;12.10;75.50;;;;;;2555327;53;21012;-69
2023/12/08 11:01:50;;;;;;;6.80;3.50;;;12.10;75.40;;;;;;2544035;53;21367;-72
2023/12/08 11:04:21;;;;;;;5.93;3.00;;;12.10;75.30;;;;;;2568509;53;20971;-70
2023/12/08 11:07:33;;;;;;;6.63;3.03;;;12.10;75.30;;;;;;2568783;53;20977;-70
2023/12/08 11:10:02;;;;;;;6.40;2.95;;;12.20;74.90;;;;;;2568644;53;20988;-69
2023/12/08 11:12:28;;;;;;;5.87;2.67;;;12.30;75.40;;;;;;2568697;53;20941;-72
2023/12/08 11:15:05;;;;;;;13.60;6.20;;;12.20;75.40;;;;;;2327141;54;20997;-69
2023/12/08 11:17:41;;;;;;;10.18;5.03;;;12.20;75.30;;;;;;2305593;55;20942;-72
2023/12/08 11:20:08;;;;;;;8.18;4.40;;;12.30;75.20;;;;;;2304662;55;20945;-72
2023/12/08 11:22:35;;;;;;;10.00;6.75;;;12.30;75.30;;;;;;2539996;54;20959;-71
2023/12/08 11:25:08;;;;;;;6.75;4.80;;;12.30;75.30;;;;;;2539053;54;20976;-72
2023/12/08 11:27:52;;;;;;;4.95;3.40;;;12.40;75.20;;;;;;2302684;54;21060;-69
2023/12/08 11:30:24;;;;;;;3.92;2.40;;;12.40;75.00;;;;;;2539057;54;20954;-72
2023/12/08 11:33:02;;;;;;;3.95;1.90;;;12.40;75.20;;;;;;2302308;56;20973;-70
2023/12/08 11:35:31;;;;;;;3.05;1.50;;;12.40;75.00;;;;;;2540400;54;20984;-70
2023/12/08 11:37:57;;;;;;;2.60;1.30;;;12.40;75.10;;;;;;2302416;55;21045;-71
2023/12/08 11:40:29;;;;;;;4.43;1.25;;;12.50;75.00;;;;;;2540042;54;21001;-73
2023/12/08 11:42:56;;;;;;;;;;;12.50;74.60;;;;;;2304992;55;20965;-69
2023/12/08 11:45:22;;;;;;;3.92;1.17;;;12.50;73.80;;;;;;2302404;55;20076;-71
2023/12/08 11:47:49;;;;;;;2.45;1.20;;;12.50;74.40;;;;;;2301751;55;20974;-70
2023/12/08 11:50:17;;;;;;;2.80;1.20;;;12.50;74.40;;;;;;2302537;56;21242;-71
2023/12/08 11:52:43;;;;;;;2.45;1.05;;;12.50;74.40;;;;;;2302256;55;20941;-69
2023/12/08 11:55:20;;;;;;;2.80;1.20;;;12.50;74.40;;;;;;2539757;54;22051;-69
2023/12/08 11:58:09;;;;;;;3.70;1.50;;;12.50;74.50;;;;;;2302345;56;20933;-72
2023/12/08 12:00:36;;;;;;;2.35;1.10;;;12.50;74.10;;;;;;2302288;56;20986;-73
2023/12/08 12:03:06;;;;;;;2.10;0.98;;;12.50;74.60;;;;;;2539847;54;21057;-70
2023/12/08 12:05:40;;;;;;;2.70;1.00;;;12.50;74.60;;;;;;2302538;55;20986;-70
2023/12/08 12:08:08;;;;;;;2.83;1.10;;;12.50;74.50;;;;;;2303089;55;20953;-71
2023/12/08 12:10:34;;;;;;;2.47;1.10;;;12.50;74.30;;;;;;2539327;54;21021;-69
2023/12/08 12:13:07;;;;;;;2.25;0.95;;;12.50;74.20;;;;;;2302263;55;20950;-70
2023/12/08 12:15:36;;;;;;;2.62;1.12;;;12.50;74.10;;;;;;2302399;56;20953;-71
2023/12/08 12:18:02;;;;;;;2.75;0.90;;;12.40;74.00;;;;;;2304893;56;20953;-70
2023/12/08 12:20:38;;;;;;;2.12;0.80;;;12.50;74.00;;;;;;2539659;53;20993;-70
2023/12/08 12:23:04;;;;;;;2.45;1.12;;;12.50;74.00;;;;;;2540176;54;21013;-72
2023/12/08 12:25:31;;;;;;;1.92;0.90;;;12.50;74.00;;;;;;2539530;54;21070;-71
2023/12/08 12:28:00;;;;;;;2.75;0.88;;;12.50;74.00;;;;;;2539605;54;21388;-70
2023/12/08 12:30:27;;;;;;;2.70;0.90;;;12.40;74.00;;;;;;2300917;56;20937;-70
2023/12/08 12:32:53;;;;;;;2.55;1.08;;;12.40;74.00;;;;;;2301263;56;20962;-69
2023/12/08 12:35:19;;;;;;;6.47;1.25;;;12.40;74.10;;;;;;2302005;55;20957;-69
2023/12/08 12:37:46;;;;;;;2.17;1.00;;;12.40;74.20;;;;;;2303102;55;21084;-70
2023/12/08 12:40:12;;;;;;;2.60;1.08;;;12.40;74.80;;;;;;2302408;56;21013;-70
2023/12/08 12:42:47;;;;;;;3.55;1.20;;;12.50;74.40;;;;;;2301683;56;20981;-70
2023/12/08 12:45:29;;;;;;;2.28;1.00;;;12.40;74.20;;;;;;2540107;53;21011;-70
2023/12/08 12:48:07;;;;;;;2.35;1.12;;;12.50;74.30;;;;;;2302783;55;20946;-69
2023/12/08 12:50:49;;;;;;;7.60;2.17;;;12.50;74.40;;;;;;2301615;56;21017;-73
2023/12/08 12:53:17;;;;;;;5.30;2.05;;;12.50;74.30;;;;;;2539082;54;21776;-70
2023/12/08 12:55:44;;;;;;;4.72;2.10;;;12.50;74.50;;;;;;2538206;53;21062;-70
2023/12/08 12:58:22;;;;;;;4.05;1.70;;;12.50;74.50;;;;;;2539360;54;21029;-70
2023/12/08 13:00:50;;;;;;;3.60;1.77;;;12.50;74.30;;;;;;2517097;54;20954;-69